createdAt,value
2023-02-16T00:00:00.621Z,22.27
2023-02-16T00:05:02.195Z,21.23
2023-02-16T00:10:03.933Z,22.37
2023-02-16T00:15:18.547Z,26.63
2023-02-16T00:20:20.214Z,21.83
2023-02-16T00:25:21.776Z,20.73
2023-02-16T00:30:23.552Z,22.13
2023-02-16T00:35:25.259Z,22.60
2023-02-16T00:40:26.810Z,21.63
2023-02-16T00:45:28.753Z,22.27
2023-02-16T00:50:32.921Z,24.80
2023-02-16T00:55:35.497Z,20.17
2023-02-16T01:00:43.311Z,22.70
2023-02-16T01:05:45.054Z,22.30
2023-02-16T01:11:07.235Z,20.90
2023-02-16T01:16:13.333Z,23.83
2023-02-16T01:21:15.064Z,21.80
2023-02-16T01:26:18.945Z,20.67
2023-02-16T01:31:21.320Z,22.03
2023-02-16T01:36:26.836Z,21.60
2023-02-16T01:41:44.189Z,21.73
2023-02-16T01:47:05.823Z,23.17
2023-02-16T01:52:20.514Z,21.43
2023-02-16T01:57:27.699Z,20.90
2023-02-16T02:02:38.443Z,21.37
2023-02-16T02:07:57.879Z,23.30
2023-02-16T02:13:06.805Z,20.63
2023-02-16T02:18:09.301Z,18.70
2023-02-16T02:23:32.215Z,22.63
2023-02-16T02:28:45.425Z,21.80
2023-02-16T02:33:59.159Z,22.27
2023-02-16T02:39:13.077Z,20.73
2023-02-16T02:44:18.824Z,18.63
2023-02-16T02:49:20.461Z,20.77
2023-02-16T02:54:43.866Z,20.23
2023-02-16T03:00:16.590Z,21.90
2023-02-16T03:05:19.278Z,20.37
2023-02-16T03:10:46.785Z,17.93
2023-02-16T03:15:49.695Z,17.97
2023-02-16T03:21:10.310Z,18.97
2023-02-16T03:26:30.697Z,17.17
2023-02-16T03:31:38.552Z,18.80
2023-02-16T03:36:43.632Z,18.80
2023-02-16T03:41:51.136Z,18.80
2023-02-16T03:46:52.749Z,17.00
2023-02-16T03:51:54.309Z,18.70
2023-02-16T03:56:55.888Z,19.10
2023-02-16T04:01:57.491Z,18.37
2023-02-16T04:06:59.088Z,21.20
2023-02-16T04:12:19.056Z,16.50
2023-02-16T04:17:20.645Z,21.30
2023-02-16T04:22:22.324Z,17.97
2023-02-16T04:27:23.928Z,17.90
2023-02-16T04:32:25.504Z,19.10
2023-02-16T04:37:27.225Z,21.40
2023-02-16T04:42:28.931Z,21.07
2023-02-16T04:47:30.493Z,22.23
2023-02-16T04:52:32.381Z,20.90
2023-02-16T04:57:34.019Z,20.80
2023-02-16T05:02:35.629Z,20.97
2023-02-16T05:07:37.258Z,20.73
2023-02-16T05:12:57.233Z,20.60
2023-02-16T05:17:58.829Z,19.50
2023-02-16T05:23:00.439Z,20.57
2023-02-16T05:28:02.060Z,20.93
2023-02-16T05:33:03.750Z,20.47
2023-02-16T05:38:05.363Z,20.73
2023-02-16T05:43:07.093Z,22.63
2023-02-16T05:48:08.637Z,22.50
2023-02-16T05:53:10.192Z,21.30
2023-02-16T05:58:11.804Z,21.47
2023-02-16T06:03:13.388Z,19.60
2023-02-16T06:08:14.973Z,22.57
2023-02-16T06:13:17.086Z,22.13
2023-02-16T06:18:18.651Z,20.20
2023-02-16T06:23:20.346Z,22.23
2023-02-16T06:28:21.937Z,22.30
2023-02-16T06:33:23.511Z,19.03
2023-02-16T06:38:25.105Z,21.97
2023-02-16T06:43:27.687Z,23.33
2023-02-16T06:48:30.553Z,23.27
2023-02-16T06:53:32.124Z,24.13
2023-02-16T06:58:33.691Z,27.97
2023-02-16T07:03:35.434Z,24.60
2023-02-16T07:08:37.109Z,20.50
2023-02-16T07:13:38.761Z,20.90
2023-02-16T07:18:40.512Z,23.80
2023-02-16T07:23:42.808Z,22.57
2023-02-16T07:28:44.457Z,21.43
2023-02-16T07:33:46.184Z,22.90
2023-02-16T07:38:47.757Z,24.00
2023-02-16T07:43:49.371Z,22.93
2023-02-16T07:48:50.988Z,22.23
2023-02-16T07:53:52.618Z,23.10
2023-02-16T07:58:55.298Z,21.43
2023-02-16T08:03:57.168Z,22.97
2023-02-16T08:08:58.709Z,22.77
2023-02-16T08:14:00.564Z,22.20
2023-02-16T08:19:03.843Z,20.87
2023-02-16T08:24:07.611Z,23.37
2023-02-16T08:29:13.216Z,21.33
2023-02-16T08:34:16.800Z,23.97
2023-02-16T08:39:20.801Z,22.10
2023-02-16T08:44:24.305Z,24.97
2023-02-16T08:49:25.974Z,28.60
2023-02-16T08:54:30.703Z,22.40
2023-02-16T08:59:33.258Z,22.50
2023-02-16T09:04:36.700Z,20.57
2023-02-16T09:09:39.393Z,20.37
2023-02-16T09:14:42.056Z,21.93
2023-02-16T09:19:44.602Z,21.37
2023-02-16T09:24:46.567Z,22.47
2023-02-16T09:29:49.634Z,22.33
2023-02-16T09:34:51.289Z,22.23
2023-02-16T09:39:52.978Z,22.17
2023-02-16T09:45:09.840Z,21.47
2023-02-16T09:50:52.634Z,19.30
2023-02-16T09:56:17.630Z,22.43
2023-02-16T10:01:19.201Z,21.97
2023-02-16T10:06:31.003Z,22.53
2023-02-16T10:11:48.783Z,24.10
2023-02-16T10:17:15.239Z,24.83
2023-02-16T10:22:25.160Z,22.47
2023-02-16T10:27:33.203Z,25.97
2023-02-16T10:32:44.014Z,24.23
2023-02-16T10:38:19.976Z,21.70
2023-02-16T10:43:32.744Z,24.70
2023-02-16T10:48:34.568Z,25.27
2023-02-16T10:53:53.333Z,24.37
2023-02-16T10:58:56.611Z,23.60
2023-02-16T11:03:58.769Z,21.42
2023-02-16T11:09:02.995Z,24.77
2023-02-16T11:14:25.278Z,25.70
2023-02-16T11:19:28.834Z,25.35
2023-02-16T11:24:37.209Z,23.77
2023-02-16T11:29:38.800Z,23.23
2023-02-16T11:34:45.695Z,24.23
2023-02-16T11:39:50.957Z,22.25
2023-02-16T11:44:54.838Z,21.58
2023-02-16T11:50:05.287Z,27.07
2023-02-16T11:55:24.340Z,24.30
2023-02-16T12:00:26.586Z,25.98
2023-02-16T12:05:43.670Z,23.85
2023-02-16T12:10:54.447Z,20.58
2023-02-16T12:16:15.349Z,24.25
2023-02-16T12:21:45.426Z,23.58
2023-02-16T12:26:53.746Z,23.63
2023-02-16T12:32:01.323Z,21.05
2023-02-16T12:37:31.779Z,23.08
2023-02-16T12:42:48.327Z,23.27
2023-02-16T12:47:54.788Z,22.10
2023-02-16T12:53:12.314Z,25.50
2023-02-16T12:58:14.848Z,25.92
2023-02-16T13:03:29.060Z,20.95
2023-02-16T13:08:41.532Z,24.40
2023-02-16T13:13:45.225Z,23.75
2023-02-16T13:18:48.996Z,27.65
2023-02-16T13:24:14.738Z,23.92
2023-02-16T13:29:34.391Z,23.50
2023-02-16T13:34:54.554Z,24.13
2023-02-16T13:40:02.555Z,26.90
2023-02-16T13:45:15.971Z,26.80
2023-02-16T13:50:20.570Z,24.65
2023-02-16T13:55:32.746Z,25.95
2023-02-16T14:00:45.342Z,26.02
2023-02-16T14:05:47.996Z,26.27
2023-02-16T14:10:53.143Z,25.67
2023-02-16T14:15:56.782Z,26.45
2023-02-16T14:21:06.593Z,26.65
2023-02-16T14:26:10.196Z,29.30
2023-02-16T14:31:18.712Z,27.40
2023-02-16T14:36:24.184Z,26.10
2023-02-16T14:41:33.067Z,24.92
2023-02-16T14:46:56.043Z,26.02
2023-02-16T14:52:00.274Z,27.02
2023-02-16T14:57:18.847Z,27.17
2023-02-16T15:02:28.184Z,27.27
2023-02-16T15:07:30.504Z,27.33
2023-02-16T15:12:33.364Z,28.98
2023-02-16T15:17:47.932Z,26.35
2023-02-16T15:22:57.930Z,27.15
2023-02-16T15:28:25.922Z,26.58
2023-02-16T15:33:36.239Z,25.88
2023-02-16T15:38:40.364Z,26.33
2023-02-16T15:43:50.060Z,27.20
2023-02-16T15:48:51.693Z,25.75
2023-02-16T15:53:58.875Z,27.50
2023-02-16T15:59:02.726Z,27.60
2023-02-16T16:04:22.247Z,27.20
2023-02-16T16:09:33.859Z,29.98
2023-02-16T16:14:43.252Z,32.40
2023-02-16T16:19:44.898Z,27.75
2023-02-16T16:24:48.527Z,32.75
2023-02-16T16:29:50.116Z,30.90
2023-02-16T16:34:51.723Z,31.73
2023-02-16T16:40:00.966Z,31.58
2023-02-16T16:45:25.789Z,32.67
2023-02-16T16:50:28.789Z,33.60
2023-02-16T16:55:33.860Z,30.27
2023-02-16T17:00:38.312Z,28.80
2023-02-16T17:05:40.030Z,32.15
2023-02-16T17:10:41.971Z,30.15
2023-02-16T17:16:02.719Z,34.05
2023-02-16T17:21:05.262Z,33.13
2023-02-16T17:26:07.203Z,31.88
2023-02-16T17:31:10.230Z,33.90
2023-02-16T17:36:15.204Z,32.22
2023-02-16T17:41:21.412Z,32.33
2023-02-16T17:46:23.922Z,34.83
2023-02-16T17:51:26.273Z,33.58
2023-02-16T17:56:28.045Z,34.70
2023-02-16T18:01:29.667Z,35.33
2023-02-16T18:06:31.303Z,32.88
2023-02-16T18:11:32.928Z,30.92
2023-02-16T18:16:34.516Z,33.75
2023-02-16T18:21:36.086Z,33.08
2023-02-16T18:26:37.750Z,31.08
2023-02-16T18:31:40.549Z,30.73
2023-02-16T18:36:42.263Z,33.20
2023-02-16T18:41:43.842Z,32.37
2023-02-16T18:46:45.411Z,33.20
2023-02-16T18:51:47.035Z,33.40
2023-02-16T18:56:48.598Z,31.87
2023-02-16T19:01:57.503Z,30.85
2023-02-16T19:06:59.082Z,32.72
2023-02-16T19:12:00.702Z,31.53
2023-02-16T19:17:02.551Z,35.07
2023-02-16T19:22:04.379Z,33.03
2023-02-16T19:27:05.981Z,34.70
2023-02-16T19:32:07.714Z,32.20
2023-02-16T19:37:09.284Z,32.35
2023-02-16T19:42:10.929Z,30.85
2023-02-16T19:47:12.535Z,32.73
2023-02-16T19:52:14.106Z,33.70
2023-02-16T19:57:15.712Z,37.08
2023-02-16T20:02:17.572Z,33.03
2023-02-16T20:07:19.227Z,32.28
2023-02-16T20:12:21.048Z,33.72
2023-02-16T20:17:22.633Z,34.78
2023-02-16T20:22:24.169Z,34.08
2023-02-16T20:27:27.849Z,33.40
2023-02-16T20:32:29.856Z,32.92
2023-02-16T20:37:31.487Z,32.60
2023-02-16T20:42:33.379Z,36.97
2023-02-16T20:47:34.953Z,35.07
2023-02-16T20:52:36.697Z,29.17
2023-02-16T20:57:39.116Z,33.17
2023-02-16T21:02:40.908Z,36.13
2023-02-16T21:07:42.805Z,31.48
2023-02-16T21:12:44.835Z,30.60
2023-02-16T21:17:46.452Z,29.63
2023-02-16T21:22:48.063Z,29.33
2023-02-16T21:27:49.775Z,27.73
2023-02-16T21:32:51.620Z,30.95
2023-02-16T21:37:53.236Z,28.02
2023-02-16T21:42:54.804Z,26.85
2023-02-16T21:48:14.786Z,26.38
2023-02-16T21:53:16.400Z,28.98
2023-02-16T21:58:18.098Z,27.92
2023-02-16T22:03:20.551Z,27.92
2023-02-16T22:08:26.382Z,28.63
2023-02-16T22:13:27.962Z,27.42
2023-02-16T22:18:29.566Z,26.38
2023-02-16T22:23:31.476Z,26.33
2023-02-16T22:28:33.366Z,25.90
2023-02-16T22:33:35.604Z,26.17
2023-02-16T22:38:37.227Z,25.63
2023-02-16T22:43:39.308Z,25.08
2023-02-16T22:48:41.768Z,23.77
2023-02-16T22:53:43.605Z,22.25
2023-02-16T22:58:45.913Z,22.65
2023-02-16T23:03:49.344Z,25.77
2023-02-16T23:08:53.322Z,23.15
2023-02-16T23:13:55.249Z,22.30
2023-02-16T23:18:57.842Z,23.00
2023-02-16T23:24:00.199Z,23.05
2023-02-16T23:29:02.286Z,22.90
2023-02-16T23:34:04.966Z,23.90
2023-02-16T23:39:12.275Z,22.60
2023-02-16T23:44:14.588Z,21.95
2023-02-16T23:49:16.133Z,23.20
2023-02-16T23:54:17.692Z,23.50
2023-02-16T23:59:19.286Z,24.35
